sensor_id;sensor_type;location;lat;lon;timestamp;pressure;altitude;pressure_sealevel;temperature;humidity
57894;BME280;43710;47.460;19.034;2023-05-22T03:59:53;100420.19;;;18.65;67.66
57894;BME280;43710;47.460;19.034;2023-05-22T04:02:56;100420.19;;;18.65;67.66
57894;BME280;43710;47.460;19.034;2023-05-22T04:06:00;100415.81;;;18.30;70.74
57894;BME280;43710;47.460;19.034;2023-05-22T04:09:02;100418.66;;;18.34;72.98
57894;BME280;43710;47.460;19.034;2023-05-22T04:12:06;100419.59;;;18.38;69.40
57894;BME280;43710;47.460;19.034;2023-05-22T04:15:08;100422.50;;;18.54;77.29
57894;BME280;43710;47.460;19.034;2023-05-22T04:18:11;100416.09;;;18.59;71.37
57894;BME280;43710;47.460;19.034;2023-05-22T04:21:14;100418.78;;;18.59;70.07
57894;BME280;43710;47.460;19.034;2023-05-22T04:24:20;100423.19;;;18.72;71.96
57894;BME280;43710;47.460;19.034;2023-05-22T04:27:24;100424.44;;;18.74;65.79
57894;BME280;43710;47.460;19.034;2023-05-22T04:30:27;100428.72;;;18.75;71.69
57894;BME280;43710;47.460;19.034;2023-05-22T04:33:29;100420.59;;;18.75;64.25
57894;BME280;43710;47.460;19.034;2023-05-22T04:36:35;100421.97;;;18.82;73.37
57894;BME280;43710;47.460;19.034;2023-05-22T04:39:37;100422.09;;;18.85;70.68
57894;BME280;43710;47.460;19.034;2023-05-22T04:42:41;100421.31;;;18.85;65.38
57894;BME280;43710;47.460;19.034;2023-05-22T04:45:43;100429.34;;;18.93;69.28
57894;BME280;43710;47.460;19.034;2023-05-22T04:48:47;100424.38;;;18.95;67.21
57894;BME280;43710;47.460;19.034;2023-05-22T04:51:49;100429.28;;;19.02;62.61
57894;BME280;43710;47.460;19.034;2023-05-22T04:54:52;100440.03;;;18.98;63.63
57894;BME280;43710;47.460;19.034;2023-05-22T04:57:55;100433.69;;;19.07;68.16
57894;BME280;43710;47.460;19.034;2023-05-22T05:00:58;100433.50;;;19.12;71.98
57894;BME280;43710;47.460;19.034;2023-05-22T05:04:02;100435.06;;;19.13;61.90
57894;BME280;43710;47.460;19.034;2023-05-22T05:07:05;100436.66;;;19.14;61.34
57894;BME280;43710;47.460;19.034;2023-05-22T05:10:08;100445.97;;;19.25;62.96
57894;BME280;43710;47.460;19.034;2023-05-22T05:13:11;100438.50;;;19.22;62.60
57894;BME280;43710;47.460;19.034;2023-05-22T05:16:13;100444.84;;;19.26;65.08
57894;BME280;43710;47.460;19.034;2023-05-22T05:19:19;100447.34;;;19.31;60.75
57894;BME280;43710;47.460;19.034;2023-05-22T05:22:22;100451.63;;;19.32;59.39
57894;BME280;43710;47.460;19.034;2023-05-22T05:25:25;100448.84;;;19.41;61.37
57894;BME280;43710;47.460;19.034;2023-05-22T05:28:27;100447.37;;;19.56;63.58
57894;BME280;43710;47.460;19.034;2023-05-22T05:31:32;100441.28;;;19.71;59.22
57894;BME280;43710;47.460;19.034;2023-05-22T05:34:35;100438.00;;;19.78;57.78
57894;BME280;43710;47.460;19.034;2023-05-22T05:37:37;100438.66;;;19.99;64.18
57894;BME280;43710;47.460;19.034;2023-05-22T05:40:40;100442.72;;;20.05;58.56
57894;BME280;43710;47.460;19.034;2023-05-22T05:43:43;100462.25;;;20.07;57.05
57894;BME280;43710;47.460;19.034;2023-05-22T05:46:45;100465.28;;;20.18;56.19
57894;BME280;43710;47.460;19.034;2023-05-22T05:49:49;100462.19;;;20.32;58.18
57894;BME280;43710;47.460;19.034;2023-05-22T05:52:53;100463.56;;;20.26;57.16
57894;BME280;43710;47.460;19.034;2023-05-22T05:55:56;100458.16;;;20.13;57.05
57894;BME280;43710;47.460;19.034;2023-05-22T05:59:00;100463.94;;;20.12;64.43
57894;BME280;43710;47.460;19.034;2023-05-22T06:02:04;100459.03;;;20.30;56.97
57894;BME280;43710;47.460;19.034;2023-05-22T06:05:07;100456.84;;;20.35;59.71
57894;BME280;43710;47.460;19.034;2023-05-22T06:08:12;100463.53;;;20.50;54.91
57894;BME280;43710;47.460;19.034;2023-05-22T06:11:15;100458.31;;;20.57;55.50
57894;BME280;43710;47.460;19.034;2023-05-22T06:14:22;100458.59;;;20.68;54.42
57894;BME280;43710;47.460;19.034;2023-05-22T06:17:25;100455.38;;;20.78;60.16
57894;BME280;43710;47.460;19.034;2023-05-22T06:20:28;100462.38;;;20.92;52.43
57894;BME280;43710;47.460;19.034;2023-05-22T06:23:31;100457.00;;;20.95;52.89
57894;BME280;43710;47.460;19.034;2023-05-22T06:26:33;100457.28;;;20.90;53.47
57894;BME280;43710;47.460;19.034;2023-05-22T06:29:37;100459.06;;;21.14;53.58
57894;BME280;43710;47.460;19.034;2023-05-22T06:32:40;100454.69;;;21.25;54.99
57894;BME280;43710;47.460;19.034;2023-05-22T06:35:44;100452.84;;;21.14;50.25
57894;BME280;43710;47.460;19.034;2023-05-22T06:38:47;100458.28;;;21.14;56.38
57894;BME280;43710;47.460;19.034;2023-05-22T06:41:52;100450.72;;;21.07;50.81
57894;BME280;43710;47.460;19.034;2023-05-22T06:44:54;100461.25;;;20.93;56.58
57894;BME280;43710;47.460;19.034;2023-05-22T06:47:58;100451.06;;;21.21;55.31
57894;BME280;43710;47.460;19.034;2023-05-22T06:51:01;100454.44;;;21.30;48.49
57894;BME280;43710;47.460;19.034;2023-05-22T06:54:03;100451.13;;;21.37;49.94
57894;BME280;43710;47.460;19.034;2023-05-22T06:57:09;100463.87;;;21.49;51.28
57894;BME280;43710;47.460;19.034;2023-05-22T07:00:12;100458.25;;;21.57;49.96
57894;BME280;43710;47.460;19.034;2023-05-22T07:03:16;100455.00;;;21.68;46.34
57894;BME280;43710;47.460;19.034;2023-05-22T07:06:19;100458.25;;;21.73;51.05
57894;BME280;43710;47.460;19.034;2023-05-22T07:09:21;100454.28;;;21.71;46.45
57894;BME280;43710;47.460;19.034;2023-05-22T07:12:26;100461.13;;;21.80;47.15
57894;BME280;43710;47.460;19.034;2023-05-22T07:15:29;100456.31;;;21.74;47.57
57894;BME280;43710;47.460;19.034;2023-05-22T07:18:32;100464.31;;;21.67;49.53
57894;BME280;43710;47.460;19.034;2023-05-22T07:21:35;100464.84;;;21.72;47.97
57894;BME280;43710;47.460;19.034;2023-05-22T07:24:46;100468.47;;;21.76;47.54
57894;BME280;43710;47.460;19.034;2023-05-22T07:27:54;100463.78;;;21.77;47.21
57894;BME280;43710;47.460;19.034;2023-05-22T07:30:58;100459.81;;;21.58;46.01
57894;BME280;43710;47.460;19.034;2023-05-22T07:34:01;100460.09;;;21.53;46.89
57894;BME280;43710;47.460;19.034;2023-05-22T07:37:09;100449.91;;;21.50;48.59
57894;BME280;43710;47.460;19.034;2023-05-22T07:40:13;100454.03;;;21.60;46.41
57894;BME280;43710;47.460;19.034;2023-05-22T07:43:15;100449.44;;;21.64;44.73
57894;BME280;43710;47.460;19.034;2023-05-22T07:46:18;100452.72;;;21.54;48.08
57894;BME280;43710;47.460;19.034;2023-05-22T07:49:24;100455.06;;;21.55;50.08
57894;BME280;43710;47.460;19.034;2023-05-22T07:52:27;100451.91;;;21.53;51.74
57894;BME280;43710;47.460;19.034;2023-05-22T07:55:30;100461.59;;;21.51;51.97
57894;BME280;43710;47.460;19.034;2023-05-22T07:58:32;100453.94;;;21.41;51.63
57894;BME280;43710;47.460;19.034;2023-05-22T08:01:37;100462.12;;;21.41;50.99
57894;BME280;43710;47.460;19.034;2023-05-22T08:04:39;100463.28;;;21.40;51.92
57894;BME280;43710;47.460;19.034;2023-05-22T08:07:42;100469.62;;;21.31;53.46
57894;BME280;43710;47.460;19.034;2023-05-22T08:10:44;100463.97;;;21.37;50.91
57894;BME280;43710;47.460;19.034;2023-05-22T08:14:04;100456.47;;;21.33;51.90
57894;BME280;43710;47.460;19.034;2023-05-22T08:17:07;100459.75;;;21.39;49.96
57894;BME280;43710;47.460;19.034;2023-05-22T08:20:10;100452.28;;;21.36;51.03
57894;BME280;43710;47.460;19.034;2023-05-22T08:23:13;100457.13;;;21.43;56.48
57894;BME280;43710;47.460;19.034;2023-05-22T08:26:15;100453.34;;;21.63;52.03
57894;BME280;43710;47.460;19.034;2023-05-22T08:29:18;100448.56;;;21.76;50.70
57894;BME280;43710;47.460;19.034;2023-05-22T08:32:20;100456.56;;;21.85;49.59
57894;BME280;43710;47.460;19.034;2023-05-22T08:35:23;100453.22;;;21.75;49.28
57894;BME280;43710;47.460;19.034;2023-05-22T08:38:25;100451.38;;;21.79;49.20
57894;BME280;43710;47.460;19.034;2023-05-22T08:41:28;100453.91;;;21.88;49.89
57894;BME280;43710;47.460;19.034;2023-05-22T08:44:31;100459.62;;;21.99;47.52
57894;BME280;43710;47.460;19.034;2023-05-22T08:47:36;100461.44;;;22.11;48.46
57894;BME280;43710;47.460;19.034;2023-05-22T08:50:41;100454.22;;;22.18;48.88
57894;BME280;43710;47.460;19.034;2023-05-22T08:53:44;100455.03;;;22.19;50.05
57894;BME280;43710;47.460;19.034;2023-05-22T08:56:47;100451.94;;;22.20;49.20
57894;BME280;43710;47.460;19.034;2023-05-22T08:59:58;100450.59;;;22.14;48.60
57894;BME280;43710;47.460;19.034;2023-05-22T09:03:01;100457.75;;;22.19;52.59
57894;BME280;43710;47.460;19.034;2023-05-22T09:06:04;100447.78;;;22.26;49.14
57894;BME280;43710;47.460;19.034;2023-05-22T09:09:10;100449.56;;;22.38;49.17
57894;BME280;43710;47.460;19.034;2023-05-22T09:12:13;100435.22;;;22.22;47.99
57894;BME280;43710;47.460;19.034;2023-05-22T09:15:16;100442.31;;;22.26;48.28
57894;BME280;43710;47.460;19.034;2023-05-22T09:18:25;100450.13;;;22.28;47.70
57894;BME280;43710;47.460;19.034;2023-05-22T09:21:28;100440.87;;;22.33;46.85
57894;BME280;43710;47.460;19.034;2023-05-22T09:24:41;100441.69;;;22.33;48.40
57894;BME280;43710;47.460;19.034;2023-05-22T09:27:45;100445.00;;;22.42;48.00
57894;BME280;43710;47.460;19.034;2023-05-22T09:30:52;100446.00;;;22.54;47.31
57894;BME280;43710;47.460;19.034;2023-05-22T09:33:55;100443.13;;;22.46;48.68
57894;BME280;43710;47.460;19.034;2023-05-22T09:37:01;100450.31;;;22.55;46.88
57894;BME280;43710;47.460;19.034;2023-05-22T09:40:05;100446.78;;;22.54;47.75
57894;BME280;43710;47.460;19.034;2023-05-22T09:43:09;100443.13;;;22.46;47.26
57894;BME280;43710;47.460;19.034;2023-05-22T09:46:14;100439.31;;;22.51;49.29
57894;BME280;43710;47.460;19.034;2023-05-22T09:49:17;100438.09;;;22.48;52.46
57894;BME280;43710;47.460;19.034;2023-05-22T09:52:20;100432.78;;;22.56;50.05
57894;BME280;43710;47.460;19.034;2023-05-22T09:55:24;100434.34;;;22.57;50.18
57894;BME280;43710;47.460;19.034;2023-05-22T09:58:30;100429.59;;;22.54;48.32
57894;BME280;43710;47.460;19.034;2023-05-22T10:01:35;100428.22;;;22.44;49.75
57894;BME280;43710;47.460;19.034;2023-05-22T10:04:40;100431.88;;;22.51;48.58
57894;BME280;43710;47.460;19.034;2023-05-22T10:07:53;100433.06;;;22.50;49.91
57894;BME280;43710;47.460;19.034;2023-05-22T10:10:56;100433.78;;;22.47;47.72
57894;BME280;43710;47.460;19.034;2023-05-22T10:14:01;100429.47;;;22.46;49.71
57894;BME280;43710;47.460;19.034;2023-05-22T10:17:05;100435.06;;;22.54;50.26
57894;BME280;43710;47.460;19.034;2023-05-22T10:20:08;100432.84;;;22.59;49.49
57894;BME280;43710;47.460;19.034;2023-05-22T10:23:13;100428.44;;;22.74;49.89
57894;BME280;43710;47.460;19.034;2023-05-22T10:26:16;100419.81;;;22.72;47.79
57894;BME280;43710;47.460;19.034;2023-05-22T10:29:32;100418.94;;;22.87;48.79
57894;BME280;43710;47.460;19.034;2023-05-22T10:32:45;100416.25;;;22.91;47.08
57894;BME280;43710;47.460;19.034;2023-05-22T10:35:51;100408.72;;;22.84;46.14
57894;BME280;43710;47.460;19.034;2023-05-22T10:41:58;100397.25;;;22.75;47.00
57894;BME280;43710;47.460;19.034;2023-05-22T10:45:02;100390.44;;;22.65;46.27
57894;BME280;43710;47.460;19.034;2023-05-22T10:48:07;100399.94;;;22.94;45.80
57894;BME280;43710;47.460;19.034;2023-05-22T10:51:14;100388.12;;;22.90;45.52
57894;BME280;43710;47.460;19.034;2023-05-22T10:54:37;100383.84;;;22.89;45.95
57894;BME280;43710;47.460;19.034;2023-05-22T10:57:40;100380.97;;;23.02;47.80
57894;BME280;43710;47.460;19.034;2023-05-22T11:00:43;100376.34;;;23.06;45.93
57894;BME280;43710;47.460;19.034;2023-05-22T11:04:00;100374.28;;;22.99;47.30
57894;BME280;43710;47.460;19.034;2023-05-22T11:07:04;100378.06;;;22.94;45.65
57894;BME280;43710;47.460;19.034;2023-05-22T11:10:07;100371.22;;;23.04;48.43
57894;BME280;43710;47.460;19.034;2023-05-22T11:13:11;100369.09;;;23.17;47.37
57894;BME280;43710;47.460;19.034;2023-05-22T11:16:14;100374.44;;;23.33;47.36
57894;BME280;43710;47.460;19.034;2023-05-22T11:19:20;100357.22;;;23.32;47.94
57894;BME280;43710;47.460;19.034;2023-05-22T11:25:35;100354.91;;;23.34;45.98
57894;BME280;43710;47.460;19.034;2023-05-22T11:28:38;100355.28;;;23.33;47.36
57894;BME280;43710;47.460;19.034;2023-05-22T11:31:41;100348.44;;;23.46;47.13
57894;BME280;43710;47.460;19.034;2023-05-22T11:34:45;100345.34;;;23.48;44.90
57894;BME280;43710;47.460;19.034;2023-05-22T11:37:51;100349.19;;;23.43;44.11
57894;BME280;43710;47.460;19.034;2023-05-22T11:40:54;100345.97;;;23.37;45.29
57894;BME280;43710;47.460;19.034;2023-05-22T11:43:58;100344.50;;;23.43;46.56
57894;BME280;43710;47.460;19.034;2023-05-22T11:47:01;100348.59;;;23.57;42.25
57894;BME280;43710;47.460;19.034;2023-05-22T11:50:04;100335.59;;;23.50;43.18
57894;BME280;43710;47.460;19.034;2023-05-22T11:53:07;100339.06;;;23.47;44.34
57894;BME280;43710;47.460;19.034;2023-05-22T11:56:12;100337.56;;;23.50;43.18
57894;BME280;43710;47.460;19.034;2023-05-22T11:59:15;100333.94;;;23.42;43.47
57894;BME280;43710;47.460;19.034;2023-05-22T12:02:18;100327.63;;;23.38;44.49
57894;BME280;43710;47.460;19.034;2023-05-22T12:05:21;100327.31;;;23.43;45.15
57894;BME280;43710;47.460;19.034;2023-05-22T12:08:23;100326.97;;;23.71;44.91
57894;BME280;43710;47.460;19.034;2023-05-22T12:11:26;100321.34;;;23.64;42.61
57894;BME280;43710;47.460;19.034;2023-05-22T12:14:29;100319.50;;;23.68;43.93
57894;BME280;43710;47.460;19.034;2023-05-22T12:17:34;100319.34;;;23.87;44.08
57894;BME280;43710;47.460;19.034;2023-05-22T12:20:41;100315.72;;;23.80;44.50
57894;BME280;43710;47.460;19.034;2023-05-22T12:23:50;100309.94;;;23.85;43.89
57894;BME280;43710;47.460;19.034;2023-05-22T12:26:54;100311.16;;;23.87;45.36
57894;BME280;43710;47.460;19.034;2023-05-22T12:29:57;100301.37;;;23.90;44.18
57894;BME280;43710;47.460;19.034;2023-05-22T12:32:59;100304.59;;;23.96;44.14
57894;BME280;43710;47.460;19.034;2023-05-22T12:36:06;100296.84;;;24.01;43.77
57894;BME280;43710;47.460;19.034;2023-05-22T12:39:09;100290.69;;;24.11;42.94
57894;BME280;43710;47.460;19.034;2023-05-22T12:42:12;100288.75;;;24.12;42.28
57894;BME280;43710;47.460;19.034;2023-05-22T12:45:14;100286.00;;;24.12;42.83
57894;BME280;43710;47.460;19.034;2023-05-22T12:48:19;100282.69;;;23.96;44.71
57894;BME280;43710;47.460;19.034;2023-05-22T12:51:21;100271.31;;;23.94;45.25
57894;BME280;43710;47.460;19.034;2023-05-22T12:54:25;100262.41;;;24.04;44.62
57894;BME280;43710;47.460;19.034;2023-05-22T12:57:28;100260.19;;;24.13;44.55
57894;BME280;43710;47.460;19.034;2023-05-22T13:00:31;100260.94;;;24.10;43.83
57894;BME280;43710;47.460;19.034;2023-05-22T13:03:33;100258.69;;;24.19;43.92
57894;BME280;43710;47.460;19.034;2023-05-22T13:06:35;100249.97;;;24.10;42.78
57894;BME280;43710;47.460;19.034;2023-05-22T13:09:38;100249.66;;;24.15;43.57
57894;BME280;43710;47.460;19.034;2023-05-22T13:12:40;100249.19;;;24.09;43.98
57894;BME280;43710;47.460;19.034;2023-05-22T13:15:44;100241.47;;;24.19;44.14
57894;BME280;43710;47.460;19.034;2023-05-22T13:18:47;100242.25;;;24.19;43.69
57894;BME280;43710;47.460;19.034;2023-05-22T13:21:49;100230.44;;;24.11;43.02
57894;BME280;43710;47.460;19.034;2023-05-22T13:24:51;100219.56;;;24.19;44.52
57894;BME280;43710;47.460;19.034;2023-05-22T13:27:54;100235.31;;;24.29;44.06
57894;BME280;43710;47.460;19.034;2023-05-22T13:30:56;100232.25;;;24.34;45.40
57894;BME280;43710;47.460;19.034;2023-05-22T13:33:59;100230.41;;;24.45;45.69
57894;BME280;43710;47.460;19.034;2023-05-22T13:37:04;100222.94;;;24.42;44.86
57894;BME280;43710;47.460;19.034;2023-05-22T13:40:07;100223.34;;;24.41;43.92
57894;BME280;43710;47.460;19.034;2023-05-22T13:43:10;100217.84;;;24.41;45.36
57894;BME280;43710;47.460;19.034;2023-05-22T13:46:12;100213.53;;;24.43;44.22
57894;BME280;43710;47.460;19.034;2023-05-22T13:49:14;100224.13;;;24.45;43.73
57894;BME280;43710;47.460;19.034;2023-05-22T13:52:16;100211.28;;;24.52;44.35
57894;BME280;43710;47.460;19.034;2023-05-22T13:55:19;100210.47;;;24.48;44.32
57894;BME280;43710;47.460;19.034;2023-05-22T13:58:21;100209.66;;;24.44;44.38
57894;BME280;43710;47.460;19.034;2023-05-22T14:01:24;100207.00;;;24.55;44.87
57894;BME280;43710;47.460;19.034;2023-05-22T14:04:27;100209.75;;;24.55;44.06
57894;BME280;43710;47.460;19.034;2023-05-22T14:07:29;100203.13;;;24.63;43.71
57894;BME280;43710;47.460;19.034;2023-05-22T14:10:31;100210.19;;;24.60;44.84
57894;BME280;43710;47.460;19.034;2023-05-22T14:13:35;100201.94;;;24.57;44.42
57894;BME280;43710;47.460;19.034;2023-05-22T14:16:37;100201.25;;;24.71;44.31
57894;BME280;43710;47.460;19.034;2023-05-22T14:19:40;100197.69;;;24.67;45.02
57894;BME280;43710;47.460;19.034;2023-05-22T14:22:44;100196.53;;;24.68;44.12
57894;BME280;43710;47.460;19.034;2023-05-22T14:25:59;100190.31;;;24.74;46.24
57894;BME280;43710;47.460;19.034;2023-05-22T14:29:01;100191.88;;;24.75;45.71
57894;BME280;43710;47.460;19.034;2023-05-22T14:32:04;100193.91;;;24.85;45.06
57894;BME280;43710;47.460;19.034;2023-05-22T14:35:07;100192.31;;;24.77;45.33
57894;BME280;43710;47.460;19.034;2023-05-22T14:38:09;100187.97;;;24.76;44.66
57894;BME280;43710;47.460;19.034;2023-05-22T14:41:12;100190.38;;;24.81;44.62
57894;BME280;43710;47.460;19.034;2023-05-22T14:44:14;100188.81;;;24.80;45.10
57894;BME280;43710;47.460;19.034;2023-05-22T14:47:16;100177.75;;;24.73;45.20
57894;BME280;43710;47.460;19.034;2023-05-22T14:50:19;100187.19;;;24.79;44.79
57894;BME280;43710;47.460;19.034;2023-05-22T14:53:22;100186.34;;;24.68;45.65
57894;BME280;43710;47.460;19.034;2023-05-22T14:56:24;100180.81;;;24.61;44.93
57894;BME280;43710;47.460;19.034;2023-05-22T14:59:27;100174.12;;;24.58;46.64
57894;BME280;43710;47.460;19.034;2023-05-22T15:02:29;100180.78;;;24.54;46.51
57894;BME280;43710;47.460;19.034;2023-05-22T15:05:32;100180.34;;;24.52;46.45
